sensor_id;sensor_type;location;lat;lon;timestamp;temperature;humidity
53904;DHT22;39812;52.430;16.936;2023-07-22T00:00:32;16.90;95.50
53904;DHT22;39812;52.430;16.936;2023-07-22T00:02:57;16.90;95.60
53904;DHT22;39812;52.430;16.936;2023-07-22T00:05:23;16.80;95.80
53904;DHT22;39812;52.430;16.936;2023-07-22T00:07:52;16.80;95.90
53904;DHT22;39812;52.430;16.936;2023-07-22T00:10:18;16.70;96.10
53904;DHT22;39812;52.430;16.936;2023-07-22T00:12:43;16.60;96.50
53904;DHT22;39812;52.430;16.936;2023-07-22T00:15:09;16.50;96.70
53904;DHT22;39812;52.430;16.936;2023-07-22T00:17:39;16.30;96.90
53904;DHT22;39812;52.430;16.936;2023-07-22T00:20:06;16.20;97.40
53904;DHT22;39812;52.430;16.936;2023-07-22T00:22:35;16.10;97.30
53904;DHT22;39812;52.430;16.936;2023-07-22T00:25:01;16.00;97.60
53904;DHT22;39812;52.430;16.936;2023-07-22T00:27:27;15.90;97.70
53904;DHT22;39812;52.430;16.936;2023-07-22T00:29:53;15.90;97.90
53904;DHT22;39812;52.430;16.936;2023-07-22T00:32:18;15.80;98.10
53904;DHT22;39812;52.430;16.936;2023-07-22T00:34:44;15.80;98.50
53904;DHT22;39812;52.430;16.936;2023-07-22T00:37:09;15.70;98.80
53904;DHT22;39812;52.430;16.936;2023-07-22T00:39:35;15.80;99.40
53904;DHT22;39812;52.430;16.936;2023-07-22T00:42:01;15.80;99.40
53904;DHT22;39812;52.430;16.936;2023-07-22T00:44:26;15.90;99.00
53904;DHT22;39812;52.430;16.936;2023-07-22T00:46:54;16.00;99.00
53904;DHT22;39812;52.430;16.936;2023-07-22T00:49:21;16.00;98.50
53904;DHT22;39812;52.430;16.936;2023-07-22T00:51:48;16.00;98.30
53904;DHT22;39812;52.430;16.936;2023-07-22T00:54:14;16.00;98.10
53904;DHT22;39812;52.430;16.936;2023-07-22T00:56:40;16.00;98.30
53904;DHT22;39812;52.430;16.936;2023-07-22T00:59:07;16.00;98.30
53904;DHT22;39812;52.430;16.936;2023-07-22T01:01:32;15.90;98.70
53904;DHT22;39812;52.430;16.936;2023-07-22T01:03:58;15.80;99.00
53904;DHT22;39812;52.430;16.936;2023-07-22T01:08:50;15.80;98.80
53904;DHT22;39812;52.430;16.936;2023-07-22T01:11:16;15.80;98.80
53904;DHT22;39812;52.430;16.936;2023-07-22T01:13:42;15.80;99.00
53904;DHT22;39812;52.430;16.936;2023-07-22T01:16:07;15.90;99.10
53904;DHT22;39812;52.430;16.936;2023-07-22T01:18:33;16.00;98.90
53904;DHT22;39812;52.430;16.936;2023-07-22T01:20:59;15.90;98.40
53904;DHT22;39812;52.430;16.936;2023-07-22T01:23:25;15.90;98.40
53904;DHT22;39812;52.430;16.936;2023-07-22T01:25:51;16.00;98.50
53904;DHT22;39812;52.430;16.936;2023-07-22T01:28:17;15.90;99.00
53904;DHT22;39812;52.430;16.936;2023-07-22T01:30:43;15.80;99.50
53904;DHT22;39812;52.430;16.936;2023-07-22T01:33:08;15.80;99.10
53904;DHT22;39812;52.430;16.936;2023-07-22T01:35:34;15.70;99.20
53904;DHT22;39812;52.430;16.936;2023-07-22T01:38:00;15.70;99.40
53904;DHT22;39812;52.430;16.936;2023-07-22T01:40:25;15.60;99.00
53904;DHT22;39812;52.430;16.936;2023-07-22T01:42:51;15.60;99.50
53904;DHT22;39812;52.430;16.936;2023-07-22T01:45:17;15.40;99.90
53904;DHT22;39812;52.430;16.936;2023-07-22T01:47:42;15.40;99.90
53904;DHT22;39812;52.430;16.936;2023-07-22T01:50:08;15.40;99.90
53904;DHT22;39812;52.430;16.936;2023-07-22T01:52:35;15.40;99.90
53904;DHT22;39812;52.430;16.936;2023-07-22T01:55:01;15.30;99.90
53904;DHT22;39812;52.430;16.936;2023-07-22T01:57:31;15.30;99.90
53904;DHT22;39812;52.430;16.936;2023-07-22T01:59:56;15.20;99.90
53904;DHT22;39812;52.430;16.936;2023-07-22T02:02:22;15.10;99.90
53904;DHT22;39812;52.430;16.936;2023-07-22T02:04:48;15.10;99.90
53904;DHT22;39812;52.430;16.936;2023-07-22T02:07:13;15.10;99.90
53904;DHT22;39812;52.430;16.936;2023-07-22T02:09:39;15.00;99.90
53904;DHT22;39812;52.430;16.936;2023-07-22T02:12:05;15.10;99.90
53904;DHT22;39812;52.430;16.936;2023-07-22T02:14:32;15.00;99.90
53904;DHT22;39812;52.430;16.936;2023-07-22T02:16:58;15.10;99.90
53904;DHT22;39812;52.430;16.936;2023-07-22T02:19:24;15.00;99.90
53904;DHT22;39812;52.430;16.936;2023-07-22T02:21:50;14.80;99.90
53904;DHT22;39812;52.430;16.936;2023-07-22T02:24:15;14.70;99.90
53904;DHT22;39812;52.430;16.936;2023-07-22T02:26:41;14.70;99.90
53904;DHT22;39812;52.430;16.936;2023-07-22T02:29:07;14.60;99.90
53904;DHT22;39812;52.430;16.936;2023-07-22T02:31:33;14.60;99.90
53904;DHT22;39812;52.430;16.936;2023-07-22T02:33:59;14.60;99.90
53904;DHT22;39812;52.430;16.936;2023-07-22T02:36:24;14.50;99.90
53904;DHT22;39812;52.430;16.936;2023-07-22T02:38:50;14.40;99.90
53904;DHT22;39812;52.430;16.936;2023-07-22T02:41:16;14.50;99.90
53904;DHT22;39812;52.430;16.936;2023-07-22T02:43:41;14.40;99.90
53904;DHT22;39812;52.430;16.936;2023-07-22T02:46:07;14.50;99.90
53904;DHT22;39812;52.430;16.936;2023-07-22T02:48:34;14.50;99.90
53904;DHT22;39812;52.430;16.936;2023-07-22T02:51:06;14.40;99.90
53904;DHT22;39812;52.430;16.936;2023-07-22T02:53:33;14.40;99.90
53904;DHT22;39812;52.430;16.936;2023-07-22T02:56:00;14.30;99.90
53904;DHT22;39812;52.430;16.936;2023-07-22T02:58:25;14.30;99.90
53904;DHT22;39812;52.430;16.936;2023-07-22T03:00:51;14.30;99.90
53904;DHT22;39812;52.430;16.936;2023-07-22T03:03:17;14.20;99.90
53904;DHT22;39812;52.430;16.936;2023-07-22T03:05:44;14.30;99.90
53904;DHT22;39812;52.430;16.936;2023-07-22T03:08:10;14.30;99.90
53904;DHT22;39812;52.430;16.936;2023-07-22T03:10:35;14.30;99.90
53904;DHT22;39812;52.430;16.936;2023-07-22T03:13:01;14.30;99.90
53904;DHT22;39812;52.430;16.936;2023-07-22T03:15:29;14.30;99.90
53904;DHT22;39812;52.430;16.936;2023-07-22T03:17:55;14.30;99.90
53904;DHT22;39812;52.430;16.936;2023-07-22T03:20:21;14.40;99.90
53904;DHT22;39812;52.430;16.936;2023-07-22T03:22:48;14.30;99.90
53904;DHT22;39812;52.430;16.936;2023-07-22T03:25:15;14.30;99.90
53904;DHT22;39812;52.430;16.936;2023-07-22T03:27:43;14.30;99.90
53904;DHT22;39812;52.430;16.936;2023-07-22T03:30:12;14.40;99.90
53904;DHT22;39812;52.430;16.936;2023-07-22T03:32:42;14.40;99.90
53904;DHT22;39812;52.430;16.936;2023-07-22T03:35:08;14.40;99.90
53904;DHT22;39812;52.430;16.936;2023-07-22T03:37:38;14.40;99.90
53904;DHT22;39812;52.430;16.936;2023-07-22T03:40:04;14.40;99.90
53904;DHT22;39812;52.430;16.936;2023-07-22T03:42:52;14.40;99.90
53904;DHT22;39812;52.430;16.936;2023-07-22T03:45:19;14.50;99.90
53904;DHT22;39812;52.430;16.936;2023-07-22T03:47:45;14.50;99.90
53904;DHT22;39812;52.430;16.936;2023-07-22T03:50:12;14.50;99.90
53904;DHT22;39812;52.430;16.936;2023-07-22T03:52:38;14.60;99.90
53904;DHT22;39812;52.430;16.936;2023-07-22T03:55:04;14.60;99.90
53904;DHT22;39812;52.430;16.936;2023-07-22T03:57:31;14.70;99.90
53904;DHT22;39812;52.430;16.936;2023-07-22T03:59:57;14.80;99.90
53904;DHT22;39812;52.430;16.936;2023-07-22T04:02:23;14.80;99.90
53904;DHT22;39812;52.430;16.936;2023-07-22T04:04:54;14.80;99.90
53904;DHT22;39812;52.430;16.936;2023-07-22T04:07:20;14.80;99.90
53904;DHT22;39812;52.430;16.936;2023-07-22T04:09:47;14.90;99.90
53904;DHT22;39812;52.430;16.936;2023-07-22T04:12:12;14.90;99.90
53904;DHT22;39812;52.430;16.936;2023-07-22T04:14:38;14.90;99.90
53904;DHT22;39812;52.430;16.936;2023-07-22T04:17:04;14.90;99.90
53904;DHT22;39812;52.430;16.936;2023-07-22T04:19:30;14.90;99.90
53904;DHT22;39812;52.430;16.936;2023-07-22T04:21:56;15.00;99.90
53904;DHT22;39812;52.430;16.936;2023-07-22T04:24:22;15.00;99.90
53904;DHT22;39812;52.430;16.936;2023-07-22T04:26:48;15.00;99.90
53904;DHT22;39812;52.430;16.936;2023-07-22T04:29:14;15.00;99.90
53904;DHT22;39812;52.430;16.936;2023-07-22T04:31:39;15.00;99.90
53904;DHT22;39812;52.430;16.936;2023-07-22T04:34:05;15.10;99.90
53904;DHT22;39812;52.430;16.936;2023-07-22T04:36:32;15.20;99.90
53904;DHT22;39812;52.430;16.936;2023-07-22T04:38:57;15.20;99.90
53904;DHT22;39812;52.430;16.936;2023-07-22T04:41:23;15.20;99.90
53904;DHT22;39812;52.430;16.936;2023-07-22T04:43:50;15.20;99.90
53904;DHT22;39812;52.430;16.936;2023-07-22T04:46:16;15.20;99.90
53904;DHT22;39812;52.430;16.936;2023-07-22T04:48:41;15.20;99.90
53904;DHT22;39812;52.430;16.936;2023-07-22T04:51:07;15.20;99.90
53904;DHT22;39812;52.430;16.936;2023-07-22T04:53:33;15.20;99.90
53904;DHT22;39812;52.430;16.936;2023-07-22T04:55:58;15.30;99.90
53904;DHT22;39812;52.430;16.936;2023-07-22T04:58:24;15.30;99.90
53904;DHT22;39812;52.430;16.936;2023-07-22T05:00:50;15.40;99.90
53904;DHT22;39812;52.430;16.936;2023-07-22T05:03:17;15.40;99.90
53904;DHT22;39812;52.430;16.936;2023-07-22T05:05:43;15.40;99.90
53904;DHT22;39812;52.430;16.936;2023-07-22T05:08:09;15.50;99.90
53904;DHT22;39812;52.430;16.936;2023-07-22T05:10:35;15.50;99.90
53904;DHT22;39812;52.430;16.936;2023-07-22T05:13:02;15.60;99.90
53904;DHT22;39812;52.430;16.936;2023-07-22T05:15:27;15.70;99.90
53904;DHT22;39812;52.430;16.936;2023-07-22T05:17:53;15.80;99.90
53904;DHT22;39812;52.430;16.936;2023-07-22T05:20:18;15.80;99.90
53904;DHT22;39812;52.430;16.936;2023-07-22T05:22:44;15.80;99.90
53904;DHT22;39812;52.430;16.936;2023-07-22T05:25:10;15.80;99.90
53904;DHT22;39812;52.430;16.936;2023-07-22T05:27:36;15.80;99.90
53904;DHT22;39812;52.430;16.936;2023-07-22T05:30:02;16.00;99.90
53904;DHT22;39812;52.430;16.936;2023-07-22T05:32:28;16.00;99.90
53904;DHT22;39812;52.430;16.936;2023-07-22T05:34:55;16.10;99.90
53904;DHT22;39812;52.430;16.936;2023-07-22T05:37:22;16.20;99.90
53904;DHT22;39812;52.430;16.936;2023-07-22T05:39:47;16.30;99.90
53904;DHT22;39812;52.430;16.936;2023-07-22T05:42:13;16.50;99.90
53904;DHT22;39812;52.430;16.936;2023-07-22T05:44:38;16.40;99.90
53904;DHT22;39812;52.430;16.936;2023-07-22T05:47:04;16.30;99.90
53904;DHT22;39812;52.430;16.936;2023-07-22T05:49:30;16.40;99.90
53904;DHT22;39812;52.430;16.936;2023-07-22T05:51:56;16.50;99.90
53904;DHT22;39812;52.430;16.936;2023-07-22T05:54:21;16.40;99.90
53904;DHT22;39812;52.430;16.936;2023-07-22T05:56:47;16.40;99.90
53904;DHT22;39812;52.430;16.936;2023-07-22T05:59:13;16.40;99.90
53904;DHT22;39812;52.430;16.936;2023-07-22T06:01:38;16.30;99.90
53904;DHT22;39812;52.430;16.936;2023-07-22T06:06:31;16.50;99.90
53904;DHT22;39812;52.430;16.936;2023-07-22T06:08:57;16.60;99.90
53904;DHT22;39812;52.430;16.936;2023-07-22T06:11:22;16.50;99.90
53904;DHT22;39812;52.430;16.936;2023-07-22T06:13:48;16.60;99.90
53904;DHT22;39812;52.430;16.936;2023-07-22T06:16:13;16.50;99.90
53904;DHT22;39812;52.430;16.936;2023-07-22T06:18:39;16.50;99.90
53904;DHT22;39812;52.430;16.936;2023-07-22T06:21:05;16.70;99.90
53904;DHT22;39812;52.430;16.936;2023-07-22T06:23:31;16.80;99.90
53904;DHT22;39812;52.430;16.936;2023-07-22T06:25:56;17.00;99.90
53904;DHT22;39812;52.430;16.936;2023-07-22T06:28:22;17.30;99.20
53904;DHT22;39812;52.430;16.936;2023-07-22T06:30:48;17.50;98.70
53904;DHT22;39812;52.430;16.936;2023-07-22T06:33:13;17.40;98.50
53904;DHT22;39812;52.430;16.936;2023-07-22T06:35:39;17.40;98.60
53904;DHT22;39812;52.430;16.936;2023-07-22T06:38:04;17.40;98.60
53904;DHT22;39812;52.430;16.936;2023-07-22T06:40:30;17.40;98.70
53904;DHT22;39812;52.430;16.936;2023-07-22T06:42:56;17.40;98.40
53904;DHT22;39812;52.430;16.936;2023-07-22T06:45:21;17.70;98.40
53904;DHT22;39812;52.430;16.936;2023-07-22T06:47:47;17.60;97.80
53904;DHT22;39812;52.430;16.936;2023-07-22T06:50:13;17.80;97.80
53904;DHT22;39812;52.430;16.936;2023-07-22T06:52:38;18.00;97.40
53904;DHT22;39812;52.430;16.936;2023-07-22T06:55:05;18.30;96.90
53904;DHT22;39812;52.430;16.936;2023-07-22T06:57:30;18.10;97.00
53904;DHT22;39812;52.430;16.936;2023-07-22T06:59:56;18.50;96.70
53904;DHT22;39812;52.430;16.936;2023-07-22T07:02:24;18.90;95.90
53904;DHT22;39812;52.430;16.936;2023-07-22T07:04:50;19.10;94.90
53904;DHT22;39812;52.430;16.936;2023-07-22T07:07:16;19.20;95.20
53904;DHT22;39812;52.430;16.936;2023-07-22T07:09:41;19.30;94.30
53904;DHT22;39812;52.430;16.936;2023-07-22T07:12:08;19.50;94.20
53904;DHT22;39812;52.430;16.936;2023-07-22T07:14:34;19.40;94.00
53904;DHT22;39812;52.430;16.936;2023-07-22T07:17:00;19.20;93.40
53904;DHT22;39812;52.430;16.936;2023-07-22T07:19:27;18.70;94.10
53904;DHT22;39812;52.430;16.936;2023-07-22T07:21:53;18.40;95.00
53904;DHT22;39812;52.430;16.936;2023-07-22T07:24:18;18.40;95.70
53904;DHT22;39812;52.430;16.936;2023-07-22T07:26:44;19.20;94.60
53904;DHT22;39812;52.430;16.936;2023-07-22T07:29:10;19.30;93.90
53904;DHT22;39812;52.430;16.936;2023-07-22T07:31:37;19.00;93.20
53904;DHT22;39812;52.430;16.936;2023-07-22T07:34:03;18.60;94.40
53904;DHT22;39812;52.430;16.936;2023-07-22T07:36:29;18.40;94.70
53904;DHT22;39812;52.430;16.936;2023-07-22T07:38:54;18.40;94.90
53904;DHT22;39812;52.430;16.936;2023-07-22T07:41:21;18.30;94.70
53904;DHT22;39812;52.430;16.936;2023-07-22T07:43:46;18.30;95.00
53904;DHT22;39812;52.430;16.936;2023-07-22T07:46:21;18.40;94.60
53904;DHT22;39812;52.430;16.936;2023-07-22T07:48:52;18.50;94.30
53904;DHT22;39812;52.430;16.936;2023-07-22T07:51:19;18.60;94.20
53904;DHT22;39812;52.430;16.936;2023-07-22T07:53:46;18.50;93.80
53904;DHT22;39812;52.430;16.936;2023-07-22T07:56:13;18.40;93.30
53904;DHT22;39812;52.430;16.936;2023-07-22T07:58:39;18.40;93.80
53904;DHT22;39812;52.430;16.936;2023-07-22T08:01:05;18.80;93.50
53904;DHT22;39812;52.430;16.936;2023-07-22T08:03:33;18.90;93.00
53904;DHT22;39812;52.430;16.936;2023-07-22T08:05:59;18.80;92.10
53904;DHT22;39812;52.430;16.936;2023-07-22T08:08:24;18.90;91.60
53904;DHT22;39812;52.430;16.936;2023-07-22T08:11:09;19.10;91.50
53904;DHT22;39812;52.430;16.936;2023-07-22T08:13:35;18.90;91.70
53904;DHT22;39812;52.430;16.936;2023-07-22T08:16:05;18.80;91.70
53904;DHT22;39812;52.430;16.936;2023-07-22T08:18:32;18.80;91.40
53904;DHT22;39812;52.430;16.936;2023-07-22T08:20:58;18.80;91.50
53904;DHT22;39812;52.430;16.936;2023-07-22T08:23:24;19.00;91.00
53904;DHT22;39812;52.430;16.936;2023-07-22T08:25:50;19.60;90.60
53904;DHT22;39812;52.430;16.936;2023-07-22T08:28:16;19.80;88.60
53904;DHT22;39812;52.430;16.936;2023-07-22T08:30:42;19.80;89.00
53904;DHT22;39812;52.430;16.936;2023-07-22T08:33:11;19.80;89.20
53904;DHT22;39812;52.430;16.936;2023-07-22T08:35:38;20.10;87.80
53904;DHT22;39812;52.430;16.936;2023-07-22T08:38:04;20.10;88.00
53904;DHT22;39812;52.430;16.936;2023-07-22T08:40:40;20.20;87.50
53904;DHT22;39812;52.430;16.936;2023-07-22T08:43:09;20.40;85.90
53904;DHT22;39812;52.430;16.936;2023-07-22T08:45:36;20.60;85.10
53904;DHT22;39812;52.430;16.936;2023-07-22T08:48:07;20.50;85.80
53904;DHT22;39812;52.430;16.936;2023-07-22T08:50:46;20.70;85.10
53904;DHT22;39812;52.430;16.936;2023-07-22T08:53:12;20.60;84.90
53904;DHT22;39812;52.430;16.936;2023-07-22T08:55:39;20.50;84.90
53904;DHT22;39812;52.430;16.936;2023-07-22T08:58:09;19.90;83.80
53904;DHT22;39812;52.430;16.936;2023-07-22T09:00:35;19.50;86.10
53904;DHT22;39812;52.430;16.936;2023-07-22T09:03:02;19.30;87.50
53904;DHT22;39812;52.430;16.936;2023-07-22T09:05:28;19.40;85.90
53904;DHT22;39812;52.430;16.936;2023-07-22T09:07:55;19.40;86.40
53904;DHT22;39812;52.430;16.936;2023-07-22T09:10:22;19.60;84.40
53904;DHT22;39812;52.430;16.936;2023-07-22T09:12:50;19.70;83.50
53904;DHT22;39812;52.430;16.936;2023-07-22T09:15:16;20.10;82.90
53904;DHT22;39812;52.430;16.936;2023-07-22T09:17:43;20.60;81.70
53904;DHT22;39812;52.430;16.936;2023-07-22T09:20:12;20.50;82.00
53904;DHT22;39812;52.430;16.936;2023-07-22T09:22:46;20.30;79.90
53904;DHT22;39812;52.430;16.936;2023-07-22T09:25:24;20.60;79.20
53904;DHT22;39812;52.430;16.936;2023-07-22T09:27:54;20.20;78.20
53904;DHT22;39812;52.430;16.936;2023-07-22T09:30:28;20.00;79.20
53904;DHT22;39812;52.430;16.936;2023-07-22T09:32:59;20.20;79.30
53904;DHT22;39812;52.430;16.936;2023-07-22T09:35:27;20.50;76.80
53904;DHT22;39812;52.430;16.936;2023-07-22T09:37:54;20.50;76.30
53904;DHT22;39812;52.430;16.936;2023-07-22T09:40:24;20.50;76.50
53904;DHT22;39812;52.430;16.936;2023-07-22T09:42:54;20.80;75.50
53904;DHT22;39812;52.430;16.936;2023-07-22T09:45:23;20.80;75.60
53904;DHT22;39812;52.430;16.936;2023-07-22T09:47:51;21.20;74.20
53904;DHT22;39812;52.430;16.936;2023-07-22T09:50:22;21.40;73.60
53904;DHT22;39812;52.430;16.936;2023-07-22T09:52:50;21.20;73.20
53904;DHT22;39812;52.430;16.936;2023-07-22T09:55:17;21.00;73.70
53904;DHT22;39812;52.430;16.936;2023-07-22T09:58:02;21.10;75.10
53904;DHT22;39812;52.430;16.936;2023-07-22T10:00:30;21.20;75.50
53904;DHT22;39812;52.430;16.936;2023-07-22T10:02:57;21.60;75.00
53904;DHT22;39812;52.430;16.936;2023-07-22T10:10:19;21.20;72.90
53904;DHT22;39812;52.430;16.936;2023-07-22T10:12:45;20.70;74.50
53904;DHT22;39812;52.430;16.936;2023-07-22T10:15:14;20.20;71.90
53904;DHT22;39812;52.430;16.936;2023-07-22T10:17:41;20.00;73.10
53904;DHT22;39812;52.430;16.936;2023-07-22T10:20:12;20.30;73.50
53904;DHT22;39812;52.430;16.936;2023-07-22T10:22:42;20.60;71.30
53904;DHT22;39812;52.430;16.936;2023-07-22T10:25:20;20.90;71.50
53904;DHT22;39812;52.430;16.936;2023-07-22T10:27:47;21.00;71.70
53904;DHT22;39812;52.430;16.936;2023-07-22T10:30:15;21.20;70.60
53904;DHT22;39812;52.430;16.936;2023-07-22T10:32:49;21.40;70.20
53904;DHT22;39812;52.430;16.936;2023-07-22T10:37:49;21.20;70.80
53904;DHT22;39812;52.430;16.936;2023-07-22T10:40:29;21.50;70.90
53904;DHT22;39812;52.430;16.936;2023-07-22T10:45:32;21.50;71.20
53904;DHT22;39812;52.430;16.936;2023-07-22T10:50:54;21.60;68.80
53904;DHT22;39812;52.430;16.936;2023-07-22T10:58:31;21.90;64.40
53904;DHT22;39812;52.430;16.936;2023-07-22T11:04:12;22.10;64.70
53904;DHT22;39812;52.430;16.936;2023-07-22T12:30:39;26.90;53.30
53904;DHT22;39812;52.430;16.936;2023-07-22T12:33:04;28.20;52.30
53904;DHT22;39812;52.430;16.936;2023-07-22T12:35:30;27.20;52.20
53904;DHT22;39812;52.430;16.936;2023-07-22T12:37:55;27.30;53.70
53904;DHT22;39812;52.430;16.936;2023-07-22T12:40:21;29.60;51.50
53904;DHT22;39812;52.430;16.936;2023-07-22T12:42:47;28.20;49.90
53904;DHT22;39812;52.430;16.936;2023-07-22T12:47:38;26.40;53.20
53904;DHT22;39812;52.430;16.936;2023-07-22T12:50:05;25.60;54.50
53904;DHT22;39812;52.430;16.936;2023-07-22T12:52:33;26.20;55.10
53904;DHT22;39812;52.430;16.936;2023-07-22T12:54:58;24.80;55.20
53904;DHT22;39812;52.430;16.936;2023-07-22T12:59:50;23.80;57.00
53904;DHT22;39812;52.430;16.936;2023-07-22T13:07:09;27.80;52.80
53904;DHT22;39812;52.430;16.936;2023-07-22T13:14:27;25.20;55.40
53904;DHT22;39812;52.430;16.936;2023-07-22T13:21:44;25.30;54.60
53904;DHT22;39812;52.430;16.936;2023-07-22T13:41:12;24.60;54.10
53904;DHT22;39812;52.430;16.936;2023-07-22T13:43:37;25.00;53.10
53904;DHT22;39812;52.430;16.936;2023-07-22T13:50:55;25.20;54.20
53904;DHT22;39812;52.430;16.936;2023-07-22T13:53:20;25.90;53.60
53904;DHT22;39812;52.430;16.936;2023-07-22T13:55:46;28.50;51.80
53904;DHT22;39812;52.430;16.936;2023-07-22T13:58:12;29.40;49.40
53904;DHT22;39812;52.430;16.936;2023-07-22T14:00:37;29.70;48.50
53904;DHT22;39812;52.430;16.936;2023-07-22T14:03:03;32.50;47.10
53904;DHT22;39812;52.430;16.936;2023-07-22T14:05:29;33.20;44.80
53904;DHT22;39812;52.430;16.936;2023-07-22T14:07:54;32.80;43.60
53904;DHT22;39812;52.430;16.936;2023-07-22T14:10:20;31.80;45.50
53904;DHT22;39812;52.430;16.936;2023-07-22T14:12:46;32.90;45.30
53904;DHT22;39812;52.430;16.936;2023-07-22T14:15:12;32.60;44.60
53904;DHT22;39812;52.430;16.936;2023-07-22T14:17:38;32.70;43.90
53904;DHT22;39812;52.430;16.936;2023-07-22T14:20:04;33.60;43.80
53904;DHT22;39812;52.430;16.936;2023-07-22T14:22:32;32.30;43.20
53904;DHT22;39812;52.430;16.936;2023-07-22T14:24:57;31.60;44.60
53904;DHT22;39812;52.430;16.936;2023-07-22T14:27:23;31.50;44.90
53904;DHT22;39812;52.430;16.936;2023-07-22T14:29:49;32.30;44.20
53904;DHT22;39812;52.430;16.936;2023-07-22T14:32:14;32.10;44.00
53904;DHT22;39812;52.430;16.936;2023-07-22T14:34:42;31.40;44.10
53904;DHT22;39812;52.430;16.936;2023-07-22T14:37:07;31.10;44.50
53904;DHT22;39812;52.430;16.936;2023-07-22T14:39:33;32.60;43.50
53904;DHT22;39812;52.430;16.936;2023-07-22T14:41:59;33.30;43.90
53904;DHT22;39812;52.430;16.936;2023-07-22T14:44:24;33.40;42.80
53904;DHT22;39812;52.430;16.936;2023-07-22T14:46:50;32.20;43.30
53904;DHT22;39812;52.430;16.936;2023-07-22T14:49:15;32.20;44.00
53904;DHT22;39812;52.430;16.936;2023-07-22T14:51:41;32.30;43.90
53904;DHT22;39812;52.430;16.936;2023-07-22T14:54:07;32.80;43.20
53904;DHT22;39812;52.430;16.936;2023-07-22T14:56:34;32.80;42.20
53904;DHT22;39812;52.430;16.936;2023-07-22T14:58:59;32.40;42.80
53904;DHT22;39812;52.430;16.936;2023-07-22T15:01:25;30.40;43.80
53904;DHT22;39812;52.430;16.936;2023-07-22T15:03:51;29.60;44.80
53904;DHT22;39812;52.430;16.936;2023-07-22T15:06:16;31.00;44.80
53904;DHT22;39812;52.430;16.936;2023-07-22T15:08:43;30.70;43.40
53904;DHT22;39812;52.430;16.936;2023-07-22T15:11:08;30.50;44.00
53904;DHT22;39812;52.430;16.936;2023-07-22T15:13:34;30.70;44.30
53904;DHT22;39812;52.430;16.936;2023-07-22T15:16:00;30.70;43.90
53904;DHT22;39812;52.430;16.936;2023-07-22T15:18:25;32.50;43.30
53904;DHT22;39812;52.430;16.936;2023-07-22T15:20:51;31.20;42.90
53904;DHT22;39812;52.430;16.936;2023-07-22T15:23:18;30.40;44.20
53904;DHT22;39812;52.430;16.936;2023-07-22T15:25:43;30.20;45.10
53904;DHT22;39812;52.430;16.936;2023-07-22T15:28:09;29.90;45.30
53904;DHT22;39812;52.430;16.936;2023-07-22T15:30:34;32.20;44.50
53904;DHT22;39812;52.430;16.936;2023-07-22T15:33:00;34.40;41.80
53904;DHT22;39812;52.430;16.936;2023-07-22T15:35:26;34.20;40.70
53904;DHT22;39812;52.430;16.936;2023-07-22T15:37:51;33.60;41.50
53904;DHT22;39812;52.430;16.936;2023-07-22T15:40:19;32.90;42.10
53904;DHT22;39812;52.430;16.936;2023-07-22T15:42:45;33.10;42.40
53904;DHT22;39812;52.430;16.936;2023-07-22T15:45:10;33.00;40.90
53904;DHT22;39812;52.430;16.936;2023-07-22T15:47:36;32.50;41.70
53904;DHT22;39812;52.430;16.936;2023-07-22T15:50:02;31.90;42.50
53904;DHT22;39812;52.430;16.936;2023-07-22T15:52:28;31.20;43.40
53904;DHT22;39812;52.430;16.936;2023-07-22T15:54:53;32.30;42.90
53904;DHT22;39812;52.430;16.936;2023-07-22T15:57:19;31.40;42.80
53904;DHT22;39812;52.430;16.936;2023-07-22T15:59:45;30.80;43.10
53904;DHT22;39812;52.430;16.936;2023-07-22T16:02:10;30.50;43.20
53904;DHT22;39812;52.430;16.936;2023-07-22T16:04:36;30.80;43.30
53904;DHT22;39812;52.430;16.936;2023-07-22T16:07:02;30.10;43.40
53904;DHT22;39812;52.430;16.936;2023-07-22T16:09:31;28.90;45.00
53904;DHT22;39812;52.430;16.936;2023-07-22T16:11:57;27.30;46.50
53904;DHT22;39812;52.430;16.936;2023-07-22T16:14:23;27.00;47.00
53904;DHT22;39812;52.430;16.936;2023-07-22T16:16:48;28.40;46.20
53904;DHT22;39812;52.430;16.936;2023-07-22T16:19:14;28.70;45.50
53904;DHT22;39812;52.430;16.936;2023-07-22T16:21:39;29.10;45.30
53904;DHT22;39812;52.430;16.936;2023-07-22T16:24:05;29.10;45.10
53904;DHT22;39812;52.430;16.936;2023-07-22T16:26:30;29.00;45.40
53904;DHT22;39812;52.430;16.936;2023-07-22T16:28:56;29.20;45.60
53904;DHT22;39812;52.430;16.936;2023-07-22T16:31:22;27.80;45.90
53904;DHT22;39812;52.430;16.936;2023-07-22T16:33:48;27.10;47.30
53904;DHT22;39812;52.430;16.936;2023-07-22T16:36:13;27.50;47.80
53904;DHT22;39812;52.430;16.936;2023-07-22T16:38:39;28.80;46.50
53904;DHT22;39812;52.430;16.936;2023-07-22T16:41:05;28.70;46.00
53904;DHT22;39812;52.430;16.936;2023-07-22T16:43:30;28.40;46.10
53904;DHT22;39812;52.430;16.936;2023-07-22T16:45:56;27.00;46.90
53904;DHT22;39812;52.430;16.936;2023-07-22T16:48:21;26.70;47.60
53904;DHT22;39812;52.430;16.936;2023-07-22T16:50:47;26.40;48.20
53904;DHT22;39812;52.430;16.936;2023-07-22T16:53:13;26.40;48.20
53904;DHT22;39812;52.430;16.936;2023-07-22T16:55:38;26.30;48.40
53904;DHT22;39812;52.430;16.936;2023-07-22T16:58:04;27.00;48.00
53904;DHT22;39812;52.430;16.936;2023-07-22T17:00:30;27.50;47.30
53904;DHT22;39812;52.430;16.936;2023-07-22T17:02:56;28.60;46.40
53904;DHT22;39812;52.430;16.936;2023-07-22T17:05:22;28.10;46.40
53904;DHT22;39812;52.430;16.936;2023-07-22T17:07:48;27.30;47.00
53904;DHT22;39812;52.430;16.936;2023-07-22T17:10:13;25.50;49.20
53904;DHT22;39812;52.430;16.936;2023-07-22T17:12:39;24.60;50.90
53904;DHT22;39812;52.430;16.936;2023-07-22T17:15:05;24.00;52.60
53904;DHT22;39812;52.430;16.936;2023-07-22T17:17:31;23.60;53.20
53904;DHT22;39812;52.430;16.936;2023-07-22T17:19:57;23.30;54.00
53904;DHT22;39812;52.430;16.936;2023-07-22T17:22:22;23.60;53.80
53904;DHT22;39812;52.430;16.936;2023-07-22T17:24:48;23.80;54.00
53904;DHT22;39812;52.430;16.936;2023-07-22T17:27:13;26.10;51.30
53904;DHT22;39812;52.430;16.936;2023-07-22T17:29:39;25.60;50.50
53904;DHT22;39812;52.430;16.936;2023-07-22T17:32:05;24.80;51.50
53904;DHT22;39812;52.430;16.936;2023-07-22T17:34:31;24.30;52.60
53904;DHT22;39812;52.430;16.936;2023-07-22T17:36:56;24.00;53.30
53904;DHT22;39812;52.430;16.936;2023-07-22T17:39:22;23.60;54.10
53904;DHT22;39812;52.430;16.936;2023-07-22T17:41:47;23.40;54.70